Chapelle, New Mexico
Current Conditions -  °F | °C
As of 11:53 AM on Saturday 25 Oct 2014 (Local Time) from KLVS Reporting Station
Clear Clear  
Wind Chill: 76°   Ceiling: Unl
Heat Index: 76°   Visibility: 10mi
Dew Point: 20°   Wind: 5mph
Humidity: 12%   Direction: NA
Pressure: 30.31"   Gusts: NA
Location:  35.3928°N, 105.316°W
Report Text: KLVS 251753Z AUTO VRB04KT 10SM CLR 24/M07 A3031 RMK AO2 SLP167 T02441067 10244 20050 58006
Loading
Personal Weather Stations






























Interactive Weather Map
Tropical Storm Tracking
New forecast layout! Learn more

10-Day Weather Forecast

Advertisements
Track Severe Weather on mobile